Belfry, MT (59008)

4:17 PM MST on December 07, 2016 (GMT -0700)
Clark, Wy | | Change Station

Elev 4341 ft 44.93 °N, 109.18 °W | Updated 35 seconds ago

Clear
Clear
5.0 °F
Feels Like 5 °F
N
0.0
Wind Variable Wind from West

Today
High -- | Low -- °F
--% Chance of Precip.
Yesterday
High -- | Low -- °F
Precip. -- in
Pressure 30.66 in
Visibility 10.0 miles
Clouds Clear
Windchill 5 °F
Dew Point -2 °F
Humidity 71%
Rainfall 0.00 in
Snow Depth Not available.
7:41 AM 4:33 PM
First Quarter, 57% visible
METAR KCOD 072256Z AUTO 17004KT 10SM CLR M16/M19 A3032 RMK AO2 SLP382 T11611194 FZRANO
Pressure 30.66 in
Visibility 10.0 miles
Clouds Clear
Windchill 5 °F
Dew Point -2 °F
Humidity 71%
Rainfall 0.00 in
Snow Depth Not available.
7:41 AM 4:33 PM
First Quarter, 57% visible
METAR KCOD 072256Z AUTO 17004KT 10SM CLR M16/M19 A3032 RMK AO2 SLP382 T11611194 FZRANO

10-Day Weather Forecast

Almanac

Astronomy

Dec. 07, 2016 Rise Set
Actual Time
Civil Twilight
Nautical Twilight
Astronomical Twilight
Moon
Length of Visible Light
Length of Day
Tomorrow will be .
, % of the Moon is Illuminated

Today's Extremes

State Highs State Lows

Community

WunderPhotos

Upload Photos

1,956,216 photos uploaded!

WunderBlog® & News

Nearby

Air Quality

  Air Quality AQ Index Pollutant
Not available.

Snow Depth

Station Depth Elevation

Earthquake Activity

City Distance Mag. Time & Date
Minimum magnitude displayed is 2.5.

Coastal Water Temperatures

Place Temperature

Stations

Nearby Weather Stations

Station Location Temp. Windchill Dew Point Humidity Wind Precip. Elev Updated Type
                   

Watches & Warnings

There are currently no watches in effect.